createdAt,value
2023-01-09T00:06:07.479Z,89.52
2023-01-09T00:16:15.122Z,89.51
2023-01-09T00:26:22.938Z,89.32
2023-01-09T00:36:31.324Z,89.05
2023-01-09T00:46:46.071Z,89.01
2023-01-09T00:56:53.527Z,88.95
2023-01-09T01:07:18.192Z,89.04
2023-01-09T01:17:25.272Z,89.03
2023-01-09T01:27:32.633Z,89.03
2023-01-09T01:37:40.580Z,89.06
2023-01-09T01:47:49.914Z,89.18
2023-01-09T01:58:01.976Z,89.27
2023-01-09T02:08:07.962Z,89.23
2023-01-09T02:18:23.983Z,89.34
2023-01-09T02:28:39.672Z,89.36
2023-01-09T02:38:49.090Z,89.54
2023-01-09T02:48:56.945Z,89.83
2023-01-09T02:59:15.738Z,90.13
2023-01-09T03:09:26.363Z,90.30
2023-01-09T03:19:37.265Z,90.46
2023-01-09T03:29:43.759Z,90.76
2023-01-09T03:39:51.198Z,90.89
2023-01-09T03:49:58.349Z,90.88
2023-01-09T04:00:04.742Z,90.99
2023-01-09T04:10:14.647Z,91.02
2023-01-09T04:20:21.619Z,91.15
2023-01-09T04:30:28.960Z,91.01
2023-01-09T04:40:36.088Z,91.10
2023-01-09T04:50:43.397Z,91.31
2023-01-09T05:00:50.666Z,91.39
2023-01-09T05:10:57.982Z,91.33
2023-01-09T05:21:04.779Z,91.39
2023-01-09T05:31:11.994Z,91.40
2023-01-09T05:41:19.231Z,91.45
2023-01-09T05:51:26.657Z,91.51
2023-01-09T06:01:33.973Z,91.67
2023-01-09T06:11:41.195Z,91.96
2023-01-09T06:21:48.574Z,91.94
2023-01-09T06:31:55.944Z,92.02
2023-01-09T06:42:03.135Z,92.16
2023-01-09T06:52:10.395Z,92.14
2023-01-09T07:02:16.405Z,92.17
2023-01-09T07:12:23.428Z,92.15
2023-01-09T07:22:30.597Z,91.97
2023-01-09T07:32:37.195Z,92.00
2023-01-09T07:42:44.434Z,92.02
2023-01-09T07:52:51.470Z,92.20
2023-01-09T08:02:58.718Z,92.49
2023-01-09T08:13:06.181Z,92.71
2023-01-09T08:23:12.514Z,93.25
2023-01-09T08:33:19.800Z,93.21
2023-01-09T08:43:43.394Z,93.32
2023-01-09T08:53:49.773Z,93.51
2023-01-09T09:03:57.161Z,93.66
2023-01-09T09:14:04.968Z,93.72
2023-01-09T09:24:11.561Z,94.01
2023-01-09T09:34:19.006Z,94.53
2023-01-09T09:44:53.793Z,95.24
2023-01-09T09:55:08.161Z,95.64
2023-01-09T10:05:13.622Z,95.63
2023-01-09T10:15:19.996Z,95.83
2023-01-09T10:25:25.890Z,96.27
2023-01-09T10:35:51.228Z,95.85
2023-01-09T10:46:03.434Z,95.87
2023-01-09T10:56:08.760Z,95.91
2023-01-09T11:06:16.789Z,95.94
2023-01-09T11:16:24.565Z,95.98
2023-01-09T11:26:33.263Z,96.09
2023-01-09T11:36:40.544Z,96.08
2023-01-09T11:46:47.652Z,96.22
2023-01-09T11:56:56.507Z,96.20
2023-01-09T12:07:22.259Z,96.10
2023-01-09T12:17:57.776Z,95.96
2023-01-09T12:28:08.178Z,96.02
2023-01-09T12:38:23.999Z,95.92
2023-01-09T12:48:34.714Z,95.99
2023-01-09T12:58:41.952Z,95.82
2023-01-09T13:08:46.972Z,95.78
2023-01-09T13:18:58.933Z,95.76
2023-01-09T13:29:04.457Z,95.74
2023-01-09T13:39:20.182Z,95.70
2023-01-09T13:49:48.975Z,95.62
2023-01-09T13:59:56.013Z,95.48
2023-01-09T14:10:06.497Z,95.48
2023-01-09T14:20:20.084Z,95.36
2023-01-09T14:30:37.331Z,95.46
2023-01-09T14:40:46.342Z,95.37
2023-01-09T14:50:57.235Z,95.31
2023-01-09T15:01:06.271Z,95.18
2023-01-09T15:11:15.106Z,95.14
2023-01-09T15:21:23.344Z,95.13
2023-01-09T15:31:31.680Z,95.08
2023-01-09T15:41:57.204Z,95.01
2023-01-09T15:52:05.295Z,94.94
2023-01-09T16:02:32.424Z,94.78
2023-01-09T16:12:43.036Z,94.95
2023-01-09T16:22:55.373Z,94.80
2023-01-09T16:33:02.685Z,94.62
2023-01-09T16:43:15.694Z,94.53
2023-01-09T16:53:24.354Z,94.57
2023-01-09T17:03:31.546Z,94.58
2023-01-09T17:13:38.590Z,94.43
2023-01-09T17:23:46.092Z,94.43
2023-01-09T17:33:54.035Z,94.13
2023-01-09T17:44:02.212Z,93.90
2023-01-09T17:54:10.373Z,94.05
2023-01-09T18:04:17.465Z,94.09
2023-01-09T18:14:24.699Z,94.28
2023-01-09T18:24:32.210Z,94.45
2023-01-09T18:34:38.733Z,94.13
2023-01-09T18:44:45.792Z,94.12
2023-01-09T18:54:53.989Z,93.90
2023-01-09T19:05:00.271Z,93.74
2023-01-09T19:15:11.600Z,93.97
2023-01-09T19:25:17.615Z,93.76
2023-01-09T19:35:24.952Z,93.31
2023-01-09T19:45:32.482Z,93.37
2023-01-09T19:55:39.838Z,93.58
2023-01-09T20:05:47.406Z,93.57
2023-01-09T20:15:54.578Z,93.67
2023-01-09T20:26:02.189Z,93.59
2023-01-09T20:36:11.078Z,93.30
2023-01-09T20:46:18.383Z,93.34
2023-01-09T20:56:25.262Z,93.37
2023-01-09T21:06:33.339Z,93.40
2023-01-09T21:16:40.741Z,93.63
2023-01-09T21:26:48.148Z,93.36
2023-01-09T21:36:55.341Z,93.22
2023-01-09T21:47:04.532Z,93.10
2023-01-09T21:57:13.180Z,93.31
2023-01-09T22:07:20.525Z,93.34
2023-01-09T22:17:29.334Z,93.29
2023-01-09T22:27:37.421Z,93.10
2023-01-09T22:37:44.793Z,93.07
2023-01-09T22:47:52.098Z,93.17
2023-01-09T22:58:00.454Z,93.47
2023-01-09T23:08:04.537Z,93.67
2023-01-09T23:18:11.674Z,93.52
2023-01-09T23:28:18.255Z,93.34
2023-01-09T23:38:24.409Z,93.43
2023-01-09T23:48:31.467Z,93.32
2023-01-09T23:58:38.815Z,93.39
